Time;durP1;ratioP1;P1;durP2;ratioP2;P2;SDS_P1;SDS_P2;PMS_P1;PMS_P2;Temp;Humidity;BMP_temperature;BMP_pressure;BME280_temperature;BME280_humidity;BME280_pressure;Samples;Min_cycle;Max_cycle;Signal;HPM_P1;HPM_P2
2020/12/25 00:00:23;;;;;;;1.52;0.93;;;6.60;83.60;;;4.74;83.84;95338.38;5049723;28;20029;-66
2020/12/25 00:02:49;;;;;;;2.85;1.10;;;6.50;83.50;;;4.71;83.25;95333.50;5033872;28;20108;-67
2020/12/25 00:05:14;;;;;;;1.77;1.00;;;6.40;84.00;;;4.71;83.36;95337.91;5027811;28;20056;-67
2020/12/25 00:07:40;;;;;;;12.13;7.30;;;6.50;84.10;;;4.71;83.40;95333.50;5027245;28;20554;-67
2020/12/25 00:10:06;;;;;;;11.50;7.57;;;6.50;84.00;;;4.71;83.79;95340.50;5041130;28;20044;-67
2020/12/25 00:12:31;;;;;;;5.65;3.25;;;6.50;83.80;;;4.69;84.07;95335.47;5050103;28;20045;-67
2020/12/25 00:14:57;;;;;;;2.50;1.33;;;6.40;84.10;;;4.66;83.15;95335.81;5057214;28;20047;-67
2020/12/25 00:17:22;;;;;;;2.63;0.90;;;6.30;84.20;;;4.66;83.87;95333.22;5045018;28;20025;-67
2020/12/25 00:19:48;;;;;;;1.20;0.77;;;6.30;84.30;;;4.65;83.51;95339.41;5027503;28;20088;-68
2020/12/25 00:22:13;;;;;;;1.27;0.70;;;6.40;83.70;;;4.65;83.10;95334.19;5049821;28;20069;-66
2020/12/25 00:24:40;;;;;;;10.73;6.65;;;6.40;83.90;;;4.63;83.72;95333.56;5054129;28;20041;-68
2020/12/25 00:27:06;;;;;;;4.57;3.05;;;6.40;83.60;;;4.62;83.52;95339.75;5052235;28;20167;-68
2020/12/25 00:29:32;;;;;;;5.82;3.58;;;6.40;83.60;;;4.58;83.77;95343.69;5047600;28;20068;-67
2020/12/25 00:31:57;;;;;;;1.95;0.50;;;6.30;83.30;;;4.54;83.62;95339.81;5049011;28;20118;-67
2020/12/25 00:34:23;;;;;;;1.08;0.40;;;6.10;83.50;;;4.52;83.67;95344.34;5036053;28;20037;-68
2020/12/25 00:36:48;;;;;;;0.60;0.30;;;6.10;83.80;;;4.47;83.62;95344.06;5051697;28;20028;-68
2020/12/25 00:39:17;;;;;;;0.60;0.35;;;6.10;84.00;;;4.43;83.53;95347.97;5036439;28;20045;-67
2020/12/25 00:41:44;;;;;;;1.65;0.40;;;6.00;84.10;;;4.39;83.99;95344.91;5037408;28;20060;-67
2020/12/25 00:44:10;;;;;;;0.40;0.30;;;6.00;84.30;;;4.39;83.79;95346.69;5051722;28;20104;-67
2020/12/25 00:46:36;;;;;;;2.05;0.30;;;6.00;84.00;;;4.40;83.22;95348.31;5011032;28;20048;-68
2020/12/25 00:49:02;;;;;;;0.32;0.30;;;6.10;83.70;;;4.35;83.49;95348.84;5032150;28;20025;-67
2020/12/25 00:51:27;;;;;;;0.70;0.47;;;6.10;84.10;;;4.38;83.76;95351.09;5043077;28;20037;-67
2020/12/25 00:53:53;;;;;;;1.17;0.43;;;6.10;83.80;;;4.40;83.39;95356.94;5040233;28;20125;-67
2020/12/25 00:56:18;;;;;;;1.52;0.60;;;6.10;83.50;;;4.39;83.58;95347.50;5061730;28;20540;-67
2020/12/25 00:58:44;;;;;;;0.80;0.55;;;6.20;83.20;;;4.40;83.29;95350.94;5059548;28;20040;-67
2020/12/25 01:01:11;;;;;;;1.30;0.63;;;6.20;83.40;;;4.42;83.87;95360.19;5028484;28;20075;-68
2020/12/25 01:03:37;;;;;;;2.67;0.60;;;6.30;83.40;;;4.41;83.39;95352.53;5016299;28;20052;-68
2020/12/25 01:06:09;;;;;;;1.15;0.70;;;6.20;83.10;;;4.39;83.99;95355.31;5050678;28;20060;-68
2020/12/25 01:08:35;;;;;;;1.92;0.80;;;6.20;83.40;;;4.39;83.72;95359.72;5033345;28;20037;-66
2020/12/25 01:11:00;;;;;;;1.38;0.57;;;6.10;83.20;;;4.35;83.08;95348.03;5045556;28;20075;-66
2020/12/25 01:13:26;;;;;;;1.30;0.70;;;6.10;83.30;;;4.35;83.70;95364.47;5052402;28;20033;-65
2020/12/25 01:15:51;;;;;;;0.60;0.60;;;6.10;83.40;;;4.35;83.48;95361.84;5034117;28;20377;-66
2020/12/25 01:18:17;;;;;;;1.10;0.68;;;6.10;83.50;;;4.34;83.75;95367.22;5057044;28;20534;-66
2020/12/25 01:20:42;;;;;;;1.17;0.80;;;6.10;83.60;;;4.33;83.55;95370.81;5047496;28;20362;-67
2020/12/25 01:23:08;;;;;;;0.88;0.70;;;6.10;83.50;;;4.32;83.93;95375.22;5046530;28;20095;-67
2020/12/25 01:25:33;;;;;;;1.00;0.70;;;6.10;83.50;;;4.30;83.88;95369.38;5057320;28;20039;-66
2020/12/25 01:27:59;;;;;;;1.55;0.73;;;6.00;83.70;;;4.26;83.89;95376.66;5050888;28;20064;-66
2020/12/25 01:30:25;;;;;;;1.35;0.73;;;5.90;83.80;;;4.23;83.78;95382.22;5056504;28;20029;-66
2020/12/25 01:32:50;;;;;;;1.08;0.70;;;5.90;83.30;;;4.21;83.44;95378.16;5014173;28;20091;-66
2020/12/25 01:35:16;;;;;;;0.70;0.50;;;5.90;83.70;;;4.19;83.95;95386.13;5031042;28;20580;-66
2020/12/25 01:37:42;;;;;;;1.45;0.65;;;5.90;83.60;;;4.20;83.33;95387.75;5031524;28;20115;-66
2020/12/25 01:40:07;;;;;;;0.77;0.60;;;6.00;83.70;;;4.20;83.44;95382.56;5045007;28;20041;-66
2020/12/25 01:42:34;;;;;;;1.08;0.50;;;6.00;83.50;;;4.18;83.58;95388.91;5058521;28;20115;-66
2020/12/25 01:44:59;;;;;;;1.33;0.70;;;5.90;84.00;;;4.18;83.45;95384.50;5024593;28;20033;-66
2020/12/25 01:47:25;;;;;;;1.48;0.60;;;5.90;83.60;;;4.15;83.43;95386.66;5042727;28;20090;-66
2020/12/25 01:49:50;;;;;;;1.55;0.80;;;5.80;83.90;;;4.12;83.56;95393.00;5035124;28;20043;-66
2020/12/25 01:52:16;;;;;;;1.02;0.70;;;5.80;83.90;;;4.09;83.92;95389.91;5050163;28;20750;-66
2020/12/25 01:54:44;;;;;;;0.98;0.70;;;5.70;84.10;;;4.06;84.08;95382.41;5026514;28;20108;-66
2020/12/25 01:57:11;;;;;;;1.33;0.70;;;5.70;84.00;;;4.03;84.12;95386.16;5002012;28;20087;-66
2020/12/25 01:59:37;;;;;;;0.60;0.50;;;5.70;84.20;;;4.00;83.59;95382.09;5035201;28;20024;-66
2020/12/25 02:02:02;;;;;;;0.88;0.50;;;5.70;84.00;;;3.99;83.93;95384.88;5049285;28;20047;-66
2020/12/25 02:04:28;;;;;;;0.82;0.65;;;5.70;84.40;;;3.98;83.54;95388.47;5033600;28;20033;-66
2020/12/25 02:06:54;;;;;;;0.60;0.50;;;5.70;84.30;;;3.97;83.99;95390.25;5046477;28;20393;-66
2020/12/25 02:09:19;;;;;;;0.82;0.70;;;5.60;84.30;;;3.95;83.74;95384.41;5059181;28;20149;-65
2020/12/25 02:11:45;;;;;;;1.67;0.52;;;5.70;84.40;;;3.96;83.66;95391.22;5054984;28;20040;-66
2020/12/25 02:14:10;;;;;;;1.60;0.57;;;5.70;83.80;;;3.96;83.99;95390.41;5019785;28;20448;-65
2020/12/25 02:16:36;;;;;;;1.40;0.70;;;5.70;84.10;;;3.97;84.17;95392.03;5029696;28;20134;-66
2020/12/25 02:19:01;;;;;;;0.90;0.70;;;5.70;84.20;;;3.96;83.75;95390.41;5054448;28;20488;-66
2020/12/25 02:21:27;;;;;;;0.77;0.60;;;5.70;84.10;;;3.95;84.16;95388.78;5036437;28;20689;-66
2020/12/25 02:23:53;;;;;;;1.00;0.65;;;5.60;84.50;;;3.94;84.36;95392.38;5029478;28;20496;-66
2020/12/25 02:26:18;;;;;;;1.10;0.70;;;5.60;85.00;;;3.95;84.08;95394.00;5046278;28;20047;-66
2020/12/25 02:28:44;;;;;;;1.65;0.80;;;5.70;84.40;;;3.95;84.23;95394.81;5056081;28;20033;-66
2020/12/25 02:31:09;;;;;;;1.10;0.90;;;5.70;84.60;;;3.98;84.39;95409.28;5024491;28;20029;-66
2020/12/25 02:33:35;;;;;;;1.20;0.80;;;5.70;84.60;;;3.95;84.02;95407.00;5051236;28;20031;-66
2020/12/25 02:36:00;;;;;;;1.48;1.02;;;5.70;84.80;;;3.95;84.25;95405.22;5051200;28;20124;-66
2020/12/25 02:38:27;;;;;;;1.75;1.02;;;5.60;84.80;;;3.95;84.32;95409.59;5054174;28;20032;-66
2020/12/25 02:40:52;;;;;;;1.70;1.20;;;5.60;84.50;;;3.95;84.43;95413.03;5045755;28;20040;-66
2020/12/25 02:43:18;;;;;;;1.80;1.30;;;5.70;84.90;;;3.96;84.64;95412.03;5051183;28;20036;-66
2020/12/25 02:45:43;;;;;;;2.13;1.25;;;5.70;84.90;;;3.96;84.30;95419.03;5051390;28;20056;-66
2020/12/25 02:48:09;;;;;;;1.77;1.23;;;5.70;85.10;;;3.98;84.59;95424.88;5044506;28;20033;-66
2020/12/25 02:50:35;;;;;;;1.90;1.35;;;5.80;84.90;;;3.96;84.50;95412.03;5054774;28;20089;-66
2020/12/25 02:53:00;;;;;;;1.38;1.10;;;5.70;85.00;;;3.96;84.51;95422.44;5016526;28;20060;-66
2020/12/25 02:55:26;;;;;;;2.05;1.50;;;5.70;85.10;;;3.93;84.61;95414.97;5046318;28;20386;-66
2020/12/25 02:57:51;;;;;;;2.30;1.50;;;5.60;85.10;;;3.95;84.65;95425.22;5032582;28;20052;-66
2020/12/25 03:00:17;;;;;;;2.00;1.52;;;5.60;85.40;;;3.92;84.85;95415.97;5059691;28;20125;-66
2020/12/25 03:02:43;;;;;;;2.10;1.60;;;5.50;85.70;;;3.90;84.54;95417.09;5020779;28;20036;-66
2020/12/25 03:05:08;;;;;;;2.05;1.63;;;5.40;85.90;;;3.90;84.67;95417.09;5044606;28;20564;-66
2020/12/25 03:07:34;;;;;;;1.77;1.38;;;5.50;85.70;;;3.89;84.78;95421.50;5034815;28;20123;-66
2020/12/25 03:09:59;;;;;;;2.25;1.40;;;5.50;85.70;;;3.89;84.93;95421.50;5026435;28;20136;-66
2020/12/25 03:12:25;;;;;;;1.77;1.30;;;5.60;85.40;;;3.89;84.58;95436.28;5032242;28;20041;-66
2020/12/25 03:14:50;;;;;;;1.25;0.90;;;5.60;84.60;;;3.82;84.44;95435.28;5053511;28;20408;-66
2020/12/25 03:17:16;;;;;;;1.52;1.08;;;5.20;84.50;;;3.75;84.46;95444.75;5045682;28;20040;-67
2020/12/25 03:19:41;;;;;;;0.80;0.70;;;5.10;84.60;;;3.67;84.48;95438.56;5054656;28;21719;-66
2020/12/25 03:22:07;;;;;;;0.88;0.68;;;5.10;84.20;;;3.58;84.21;95459.50;5054250;28;20616;-66
2020/12/25 03:24:32;;;;;;;0.47;0.40;;;5.00;83.90;;;3.43;84.10;95461.94;5046207;28;20183;-66
2020/12/25 03:26:58;;;;;;;0.40;0.40;;;4.80;83.60;;;3.34;83.59;95462.91;5009716;28;20124;-66
2020/12/25 03:29:23;;;;;;;0.50;0.50;;;4.60;83.80;;;3.20;84.06;95469.53;5028262;28;20116;-66
2020/12/25 03:31:49;;;;;;;0.73;0.40;;;4.40;83.80;;;3.08;83.55;95474.22;5054293;28;20048;-66
2020/12/25 03:34:14;;;;;;;0.60;0.40;;;4.30;83.60;;;2.94;83.38;95482.63;5056489;28;20040;-66
2020/12/25 03:36:40;;;;;;;0.90;0.43;;;4.10;84.20;;;2.89;83.72;95491.84;5044508;28;20395;-66
2020/12/25 03:39:06;;;;;;;0.45;0.45;;;4.20;84.20;;;2.82;83.32;95493.44;5044985;28;20499;-66
2020/12/25 03:41:31;;;;;;;0.43;0.43;;;4.20;84.20;;;2.70;83.79;95490.28;5030626;28;20044;-67
2020/12/25 03:43:57;;;;;;;0.77;0.55;;;3.90;84.40;;;2.61;83.60;95496.41;5052696;28;20037;-67
2020/12/25 03:46:23;;;;;;;0.60;0.40;;;4.00;84.80;;;2.53;83.52;95499.81;5023728;28;20037;-66
2020/12/25 03:48:48;;;;;;;0.50;0.40;;;3.80;85.00;;;2.46;83.26;95499.56;5036480;28;20125;-67
2020/12/25 03:51:14;;;;;;;0.50;0.38;;;3.90;85.00;;;2.42;83.45;95508.66;5056845;28;20052;-66
2020/12/25 03:53:39;;;;;;;0.80;0.60;;;3.90;84.60;;;2.39;84.41;95518.53;5046976;28;20503;-67
2020/12/25 03:56:05;;;;;;;0.65;0.50;;;3.90;85.10;;;2.34;83.86;95521.59;5054529;28;20454;-66
2020/12/25 03:58:30;;;;;;;0.50;0.45;;;3.90;85.00;;;2.30;83.76;95524.63;5038007;28;20500;-66
2020/12/25 04:00:56;;;;;;;0.40;0.30;;;3.80;85.40;;;2.27;83.44;95540.50;5043565;28;20385;-66
2020/12/25 04:03:21;;;;;;;0.43;0.30;;;3.80;85.00;;;2.27;84.01;95550.91;5036171;28;20036;-67
2020/12/25 04:05:47;;;;;;;1.20;0.40;;;3.80;84.30;;;2.19;84.02;95549.03;5043991;28;20075;-66
2020/12/25 04:08:12;;;;;;;0.40;0.30;;;3.60;85.00;;;2.15;84.48;95558.91;5050516;28;20091;-66
2020/12/25 04:10:38;;;;;;;0.35;0.30;;;3.70;85.50;;;2.07;83.34;95560.63;5047629;28;20048;-66
2020/12/25 04:13:05;;;;;;;0.20;0.20;;;3.50;85.20;;;2.00;83.88;95565.56;5054464;28;20035;-67
2020/12/25 04:15:30;;;;;;;0.50;0.40;;;3.40;85.30;;;1.93;84.29;95571.53;5037775;28;20114;-67
2020/12/25 04:17:56;;;;;;;0.45;0.32;;;3.30;85.60;;;1.89;84.72;95578.78;5036334;28;20033;-67
2020/12/25 04:20:21;;;;;;;0.32;0.25;;;3.30;85.60;;;1.79;83.73;95589.22;5055254;28;20044;-67
2020/12/25 04:22:47;;;;;;;0.30;0.30;;;3.10;85.80;;;1.76;84.70;95594.69;5053735;28;20052;-66
2020/12/25 04:25:13;;;;;;;0.50;0.40;;;3.20;85.80;;;1.71;84.29;95609.06;5050334;28;20111;-66
2020/12/25 04:27:38;;;;;;;0.40;0.30;;;3.10;85.90;;;1.62;83.99;95604.78;5025349;28;20040;-66
2020/12/25 04:30:04;;;;;;;0.40;0.30;;;2.90;85.90;;;1.57;84.61;95609.56;5055535;28;20045;-66
2020/12/25 04:32:29;;;;;;;0.40;0.30;;;2.90;86.40;;;1.57;84.92;95615.56;5060535;28;20040;-66
2020/12/25 04:34:55;;;;;;;0.35;0.35;;;3.00;86.20;;;1.59;83.71;95616.25;5047069;28;20049;-66
2020/12/25 04:37:20;;;;;;;0.30;0.30;;;3.10;85.70;;;1.62;84.14;95630.69;5054785;28;20033;-66
2020/12/25 04:39:46;;;;;;;0.75;0.40;;;3.20;85.50;;;1.60;83.97;95637.81;5056563;28;20036;-66
2020/12/25 04:42:11;;;;;;;0.45;0.35;;;3.10;85.40;;;1.58;84.17;95645.69;5042536;28;20060;-66
2020/12/25 04:44:37;;;;;;;0.55;0.40;;;3.20;85.50;;;1.59;84.54;95655.13;5051231;28;20183;-66
2020/12/25 04:47:12;;;;;;;0.47;0.40;;;3.20;85.10;;;1.56;84.50;95655.38;5030299;28;20037;-66
2020/12/25 04:49:37;;;;;;;0.30;0.30;;;3.10;85.40;;;1.55;84.33;95653.75;5049109;28;20072;-66
2020/12/25 04:52:06;;;;;;;0.50;0.40;;;3.10;85.50;;;1.54;84.94;95662.50;5032902;28;20577;-66
2020/12/25 04:54:32;;;;;;;0.43;0.32;;;3.10;85.30;;;1.50;84.58;95656.78;5048089;28;20040;-66
2020/12/25 04:56:59;;;;;;;0.50;0.40;;;3.10;85.50;;;1.51;84.12;95673.97;5030112;28;20037;-66
2020/12/25 04:59:30;;;;;;;0.80;0.47;;;3.10;85.60;;;1.49;85.15;95668.13;5054426;28;20037;-66
2020/12/25 05:01:59;;;;;;;0.52;0.40;;;3.10;85.70;;;1.48;84.94;95683.81;5026043;28;20122;-66
2020/12/25 05:04:24;;;;;;;0.60;0.50;;;3.00;86.20;;;1.46;84.38;95678.78;5060078;28;20040;-66
2020/12/25 05:06:51;;;;;;;0.47;0.43;;;3.10;86.10;;;1.43;85.39;95691.22;5034970;28;20032;-66
2020/12/25 05:09:19;;;;;;;0.88;0.68;;;2.90;86.40;;;1.38;84.57;95693.41;5021333;28;20057;-66
2020/12/25 05:11:52;;;;;;;0.55;0.47;;;2.90;87.10;;;1.37;85.82;95704.75;5015082;28;20388;-66
2020/12/25 05:14:18;;;;;;;2.15;0.70;;;2.90;86.90;;;1.36;84.83;95705.66;5040629;28;20128;-66
2020/12/25 05:16:46;;;;;;;0.88;0.70;;;2.90;87.20;;;1.36;85.21;95710.84;5030529;28;20040;-66
2020/12/25 05:19:13;;;;;;;0.90;0.68;;;2.90;87.20;;;1.35;85.29;95722.19;5036806;28;20029;-66
2020/12/25 05:21:41;;;;;;;0.80;0.60;;;2.90;86.90;;;1.34;84.95;95728.31;5038659;28;20125;-66
2020/12/25 05:24:08;;;;;;;1.10;0.80;;;2.90;87.10;;;1.31;85.13;95729.41;5039145;28;20112;-66
2020/12/25 05:26:34;;;;;;;1.33;0.93;;;2.90;87.00;;;1.30;85.32;95732.16;5038661;28;20052;-66
2020/12/25 05:29:00;;;;;;;1.42;0.80;;;2.80;87.10;;;1.27;85.13;95737.63;5050337;28;20049;-66
2020/12/25 05:31:27;;;;;;;0.73;0.60;;;2.80;87.00;;;1.25;85.75;95731.75;5053974;28;20710;-66
2020/12/25 05:33:58;;;;;;;1.85;0.90;;;2.80;87.10;;;1.25;85.42;95734.34;5031295;28;20040;-66
2020/12/25 05:36:28;;;;;;;1.75;1.05;;;2.80;86.90;;;1.22;86.32;95746.63;5047681;28;20095;-66
2020/12/25 05:38:54;;;;;;;1.48;0.95;;;2.70;87.40;;;1.22;85.50;95746.63;5030763;28;20068;-66
2020/12/25 05:41:19;;;;;;;1.10;0.90;;;2.80;87.00;;;1.21;85.65;95744.19;5028407;28;20060;-66
2020/12/25 05:43:49;;;;;;;1.20;0.90;;;2.80;87.20;;;1.21;85.80;95759.72;5033284;28;20060;-66
2020/12/25 05:46:15;;;;;;;10.50;6.60;;;2.80;87.60;;;1.20;85.58;95756.31;5034162;28;20116;-66
2020/12/25 05:48:40;;;;;;;10.27;6.93;;;2.80;87.50;;;1.21;85.20;95764.91;5023501;28;20457;-66
2020/12/25 05:51:09;;;;;;;1.55;1.10;;;2.80;87.40;;;1.20;85.88;95769.28;5049109;28;20033;-66
2020/12/25 05:53:37;;;;;;;1.95;1.30;;;2.90;86.80;;;1.23;86.00;95776.75;5039219;28;20044;-66
2020/12/25 05:56:03;;;;;;;3.15;1.50;;;3.00;86.60;;;1.21;85.59;95778.69;5031023;28;20922;-66
2020/12/25 05:58:32;;;;;;;2.25;1.50;;;2.80;86.40;;;1.21;85.55;95780.44;5053087;28;20040;-66
2020/12/25 06:00:57;;;;;;;2.35;1.60;;;2.80;86.30;;;1.23;85.39;95779.34;5014639;28;20486;-66
2020/12/25 06:03:23;;;;;;;2.85;1.80;;;2.90;86.00;;;1.21;85.08;95788.22;5039090;28;20041;-66
2020/12/25 06:05:48;;;;;;;2.50;1.80;;;2.90;86.30;;;1.18;85.66;95791.91;5034592;28;20129;-65
2020/12/25 06:08:19;;;;;;;2.30;1.60;;;2.80;86.50;;;1.16;86.22;95799.00;5028836;28;20116;-66
2020/12/25 06:10:46;;;;;;;3.95;1.60;;;2.80;86.30;;;1.15;85.33;95802.56;5038363;28;20099;-66
2020/12/25 06:13:13;;;;;;;2.83;1.70;;;2.80;86.30;;;1.14;85.46;95800.94;5025831;28;20045;-66
2020/12/25 06:15:44;;;;;;;2.80;2.05;;;2.70;86.40;;;1.14;86.13;95805.28;5019725;28;21479;-66
2020/12/25 06:18:23;;;;;;;3.10;2.03;;;2.70;86.10;;;1.13;85.55;95807.06;5016378;28;20068;-66
2020/12/25 06:20:56;;;;;;;2.75;1.73;;;2.80;86.10;;;1.13;85.59;95808.81;5016627;28;20039;-66
2020/12/25 06:23:22;;;;;;;2.95;2.08;;;2.80;86.00;;;1.11;85.27;95816.72;5039028;28;20029;-66
2020/12/25 06:25:50;;;;;;;2.85;1.83;;;2.70;86.10;;;1.11;85.72;95819.31;5037632;28;20497;-66
2020/12/25 06:28:17;;;;;;;3.15;2.17;;;2.80;86.00;;;1.09;86.23;95821.22;5012123;28;20048;-66
2020/12/25 06:30:43;;;;;;;3.20;2.15;;;2.70;86.30;;;1.08;85.83;95818.75;5024295;28;20044;-66
2020/12/25 06:33:08;;;;;;;3.08;2.00;;;2.70;86.40;;;1.07;85.64;95820.53;5031381;28;20032;-66
2020/12/25 06:35:37;;;;;;;4.50;2.28;;;2.70;86.20;;;1.06;85.50;95824.09;5042041;28;20051;-66
2020/12/25 06:38:09;;;;;;;3.67;2.35;;;2.60;86.70;;;1.07;86.47;95825.72;5045460;28;20552;-66
2020/12/25 06:40:34;;;;;;;3.00;2.00;;;2.80;86.30;;;1.09;85.76;95830.75;5023452;28;20037;-65
2020/12/25 06:43:00;;;;;;;4.68;2.55;;;2.80;86.20;;;1.10;85.45;95827.22;5050170;28;20407;-66
2020/12/25 06:45:32;;;;;;;4.40;2.92;;;2.80;86.00;;;1.10;86.78;95835.81;5036011;28;20518;-65
2020/12/25 06:48:15;;;;;;;3.95;2.72;;;2.80;86.40;;;1.09;86.52;95834.16;5044790;28;20036;-66
2020/12/25 06:50:42;;;;;;;3.33;2.30;;;2.80;86.40;;;1.12;85.25;95843.44;5046336;28;20036;-67
2020/12/25 06:53:08;;;;;;;3.15;2.22;;;2.90;86.50;;;1.10;85.84;95840.97;5060365;28;20033;-68
2020/12/25 06:55:43;;;;;;;3.22;2.22;;;2.80;86.50;;;1.14;86.20;95857.91;5012030;28;20121;-67
2020/12/25 06:58:11;;;;;;;3.25;2.28;;;2.90;86.40;;;1.16;85.90;95856.00;5020891;28;20041;-71
2020/12/25 07:00:40;;;;;;;3.72;2.47;;;3.00;86.20;;;1.16;85.79;95866.34;5005427;28;20033;-71
2020/12/25 07:03:14;;;;;;;3.22;2.25;;;2.90;86.40;;;1.18;86.46;95869.63;5031427;28;20029;-71
2020/12/25 07:05:49;;;;;;;3.67;2.30;;;3.00;86.20;;;1.19;86.51;95876.44;5033741;28;20041;-66
2020/12/25 07:08:38;;;;;;;4.05;2.20;;;3.00;86.10;;;1.18;87.20;95874.81;5012230;28;20064;-67
2020/12/25 07:11:07;;;;;;;3.85;2.67;;;3.00;86.20;;;1.18;86.19;95877.41;5039138;28;20037;-66
2020/12/25 07:13:37;;;;;;;4.90;3.05;;;2.90;86.50;;;1.19;85.85;95881.63;5041930;28;20020;-66
2020/12/25 07:16:04;;;;;;;4.03;2.42;;;2.90;86.20;;;1.19;85.72;95889.41;5017236;28;20056;-66
2020/12/25 07:18:30;;;;;;;3.40;2.50;;;2.90;86.30;;;1.18;85.72;95898.13;5013041;28;20098;-66
2020/12/25 07:21:00;;;;;;;4.18;2.50;;;2.90;86.40;;;1.16;86.26;95900.03;5034417;28;20036;-67
2020/12/25 07:23:25;;;;;;;3.90;2.58;;;2.80;86.60;;;1.18;86.04;95900.72;5052467;28;20472;-67
2020/12/25 07:25:58;;;;;;;6.50;4.32;;;2.90;86.50;;;1.19;86.50;95902.34;5036463;28;20083;-66
2020/12/25 07:28:25;;;;;;;4.43;3.03;;;2.90;86.50;;;1.20;86.34;95903.97;5032887;28;20041;-65
2020/12/25 07:30:55;;;;;;;3.45;2.50;;;3.00;86.60;;;1.21;86.25;95905.63;5040747;28;20056;-67
2020/12/25 07:33:21;;;;;;;4.05;2.55;;;3.00;86.30;;;1.23;86.20;95910.66;5033389;28;20048;-67
2020/12/25 07:35:47;;;;;;;4.45;2.60;;;3.00;86.00;;;1.23;85.54;95918.44;5031172;28;20041;-66
2020/12/25 07:38:14;;;;;;;3.80;2.63;;;2.90;86.50;;;1.25;85.76;95920.88;5052753;28;20041;-67
2020/12/25 07:40:41;;;;;;;4.15;2.50;;;3.10;86.20;;;1.29;86.22;95917.06;5052651;28;20061;-67
2020/12/25 07:43:06;;;;;;;4.18;2.60;;;3.10;86.20;;;1.29;85.48;95928.25;5036398;28;20079;-66
2020/12/25 07:45:33;;;;;;;5.18;2.58;;;3.00;86.00;;;1.30;85.83;95929.06;5052047;28;20045;-66
2020/12/25 07:48:01;;;;;;;4.03;2.70;;;3.00;86.10;;;1.30;86.00;95926.47;5052670;28;20400;-66
2020/12/25 07:50:27;;;;;;;5.90;3.13;;;3.10;86.30;;;1.30;85.75;95934.25;5036030;28;20067;-66
2020/12/25 07:52:52;;;;;;;4.90;2.72;;;2.90;85.80;;;1.30;86.16;95932.47;5035691;28;20056;-66
2020/12/25 07:55:18;;;;;;;5.75;3.30;;;3.00;86.40;;;1.29;85.80;95941.19;5053909;28;20049;-67
2020/12/25 07:57:47;;;;;;;4.53;3.13;;;3.00;86.20;;;1.31;85.94;95941.06;5035727;28;20033;-67
2020/12/25 08:00:13;;;;;;;5.32;3.53;;;3.10;86.00;;;1.31;85.85;95946.25;5035965;28;20041;-67
2020/12/25 08:02:41;;;;;;;5.00;2.90;;;3.00;86.00;;;1.34;85.94;95945.97;5052444;28;20669;-68
2020/12/25 08:05:09;;;;;;;6.78;3.83;;;3.10;86.00;;;1.37;85.93;95948.31;5051332;28;20086;-68
2020/12/25 08:07:41;;;;;;;4.88;3.20;;;3.20;85.70;;;1.37;86.17;95945.72;5032940;28;20038;-68
2020/12/25 08:10:11;;;;;;;5.82;2.80;;;3.10;85.80;;;1.36;86.04;95944.06;4993683;28;20551;-73
2020/12/25 08:12:39;;;;;;;4.50;2.80;;;3.10;85.50;;;1.40;85.81;95955.81;5043996;28;20032;-73
2020/12/25 08:15:05;;;;;;;5.32;2.72;;;3.20;85.70;;;1.40;85.99;95961.00;4999534;28;20044;-71
2020/12/25 08:17:30;;;;;;;4.28;2.40;;;3.20;85.40;;;1.43;86.01;95955.53;5035446;28;20041;-72
2020/12/25 08:19:56;;;;;;;3.97;2.80;;;3.30;85.40;;;1.45;85.56;95953.63;5053230;28;20411;-71
2020/12/25 08:22:21;;;;;;;4.32;2.72;;;3.30;85.10;;;1.47;85.85;95956.91;5052299;28;20516;-72
2020/12/25 08:24:47;;;;;;;4.20;2.47;;;3.30;85.10;;;1.49;85.30;95960.16;5052830;28;20552;-67
2020/12/25 08:27:16;;;;;;;5.65;3.42;;;3.30;85.10;;;1.50;85.65;95961.81;5049841;28;20131;-71
2020/12/25 08:29:42;;;;;;;19.92;12.55;;;3.30;85.00;;;1.50;85.97;95956.63;5038117;28;20519;-70
2020/12/25 08:32:08;;;;;;;3.95;2.92;;;3.30;85.40;;;1.48;85.31;95958.53;5060657;28;20060;-71
2020/12/25 08:34:34;;;;;;;5.28;3.30;;;3.10;84.60;;;1.51;85.46;95956.47;4997805;28;20045;-69
2020/12/25 08:37:03;;;;;;;4.65;3.08;;;3.30;85.10;;;1.54;85.94;95968.34;5032103;28;20048;-68
2020/12/25 08:39:30;;;;;;;11.45;7.13;;;3.30;85.10;;;1.57;85.54;95973.25;5014490;28;20051;-67
2020/12/25 08:41:56;;;;;;;9.57;5.80;;;3.50;84.90;;;1.62;85.59;95976.28;5048089;28;20021;-70
2020/12/25 08:44:21;;;;;;;10.23;5.82;;;3.60;84.30;;;1.67;85.57;95984.47;5058582;28;20476;-69
2020/12/25 08:46:47;;;;;;;6.32;3.90;;;3.60;84.30;;;1.71;85.97;95985.81;5028740;28;20052;-68
2020/12/25 08:49:24;;;;;;;9.23;4.60;;;3.70;84.30;;;1.74;85.53;95998.50;4996238;28;20121;-68
2020/12/25 08:51:49;;;;;;;14.68;8.95;;;3.60;83.80;;;1.76;85.49;95994.00;5049116;28;20116;-67
2020/12/25 08:54:24;;;;;;;6.25;3.70;;;3.70;84.00;;;1.81;85.96;95996.16;5031804;28;20498;-67
2020/12/25 08:56:50;;;;;;;8.02;4.68;;;3.80;83.60;;;1.82;85.31;95998.66;5047726;28;20082;-66
2020/12/25 08:59:16;;;;;;;15.68;9.63;;;3.80;83.60;;;1.88;85.16;95996.47;5049006;28;20029;-68
2020/12/25 09:01:42;;;;;;;5.18;3.55;;;3.90;83.50;;;1.91;85.12;96009.16;5048102;28;20170;-67
2020/12/25 09:04:20;;;;;;;9.13;4.63;;;3.90;82.80;;;1.98;85.76;96002.44;5032331;28;20107;-68
2020/12/25 09:07:01;;;;;;;6.68;4.38;;;4.10;82.70;;;2.03;85.74;96011.44;5045231;28;20198;-67
2020/12/25 09:09:27;;;;;;;13.65;7.55;;;4.10;82.50;;;2.06;84.78;96015.56;5026126;28;20116;-67
2020/12/25 09:11:52;;;;;;;13.57;8.55;;;4.00;82.20;;;2.10;85.34;96016.91;5031966;28;20152;-67
2020/12/25 09:14:18;;;;;;;8.48;5.55;;;4.10;82.60;;;2.12;84.93;96021.00;5048785;28;20060;-71
2020/12/25 09:16:43;;;;;;;5.00;3.10;;;4.20;82.70;;;2.18;84.94;96019.63;5048254;28;20091;-73
2020/12/25 09:19:09;;;;;;;9.18;5.50;;;4.10;81.60;;;2.18;84.92;96036.97;5064410;28;20036;-70
2020/12/25 09:21:34;;;;;;;5.53;3.25;;;4.10;82.60;;;2.22;84.65;96030.53;5015402;28;20043;-67
2020/12/25 09:24:00;;;;;;;4.38;3.00;;;4.20;81.80;;;2.26;85.19;96034.50;5048417;28;20033;-67
2020/12/25 09:26:25;;;;;;;9.90;5.85;;;4.30;81.40;;;2.29;84.64;96039.44;5064836;28;20482;-68
2020/12/25 09:28:51;;;;;;;50.90;30.63;;;4.30;81.40;;;2.32;84.84;96042.56;5031418;28;20679;-69
2020/12/25 09:31:16;;;;;;;97.75;55.15;;;4.30;81.70;;;2.36;84.81;96038.72;5047587;28;20041;-68
2020/12/25 09:33:42;;;;;;;5.95;4.28;;;4.40;81.10;;;2.35;84.11;96041.47;5047872;28;20041;-69
2020/12/25 09:36:09;;;;;;;9.68;6.30;;;4.20;80.90;;;2.34;84.48;96038.03;5047885;28;20067;-67
2020/12/25 09:38:36;;;;;;;5.90;4.00;;;4.30;81.30;;;2.36;84.57;96038.72;5047533;28;20036;-68
2020/12/25 09:41:01;;;;;;;10.60;6.93;;;4.20;80.90;;;2.36;84.18;96043.91;5031336;28;20037;-67
2020/12/25 09:43:29;;;;;;;7.97;5.35;;;4.20;81.50;;;2.41;84.57;96035.69;5047294;28;20443;-67
2020/12/25 09:45:55;;;;;;;13.48;8.90;;;4.40;81.40;;;2.40;84.34;96042.66;5047900;28;20045;-68
2020/12/25 09:48:21;;;;;;;55.80;31.85;;;4.30;80.80;;;2.45;84.06;96042.25;5030809;28;20037;-67
2020/12/25 09:50:47;;;;;;;22.58;13.93;;;4.40;81.20;;;2.47;84.22;96041.13;5048264;28;20056;-66
2020/12/25 09:53:12;;;;;;;7.63;4.78;;;4.50;80.90;;;2.52;83.65;96042.53;5047226;28;20087;-68
2020/12/25 09:55:40;;;;;;;6.60;3.70;;;4.60;80.50;;;2.56;83.85;96038.69;5048089;28;20029;-71
2020/12/25 09:58:05;;;;;;;3.95;2.38;;;4.60;79.90;;;2.58;83.79;96036.75;5047457;28;20090;-68
2020/12/25 10:00:31;;;;;;;3.63;2.47;;;4.60;78.90;;;2.57;83.20;96046.31;5030906;28;20089;-68
2020/12/25 10:02:57;;;;;;;3.47;2.30;;;4.50;79.90;;;2.58;83.47;96044.53;5048379;28;20516;-67
2020/12/25 10:05:23;;;;;;;4.13;2.53;;;4.60;79.60;;;2.64;83.65;96038.78;5020482;28;20609;-67
2020/12/25 10:07:52;;;;;;;4.13;2.65;;;4.80;79.70;;;2.70;83.46;96039.03;5005388;28;20063;-67
2020/12/25 10:10:18;;;;;;;4.80;2.50;;;4.90;79.10;;;2.79;83.48;96039.97;5020573;28;20025;-66
2020/12/25 10:12:43;;;;;;;4.13;2.92;;;5.00;78.70;;;2.86;83.15;96035.84;5037264;28;20033;-66
2020/12/25 10:15:09;;;;;;;3.33;2.25;;;5.10;77.80;;;2.90;83.07;96036.38;5037344;28;20056;-66
2020/12/25 10:17:34;;;;;;;3.40;2.30;;;5.00;78.00;;;2.93;82.88;96031.69;5040287;28;20548;-67
2020/12/25 10:20:00;;;;;;;3.70;2.50;;;5.10;77.90;;;2.98;83.16;96033.88;5038317;28;20580;-69
2020/12/25 10:22:25;;;;;;;3.70;2.30;;;5.10;78.10;;;3.04;83.02;96033.31;5037508;28;20458;-67
2020/12/25 10:24:51;;;;;;;16.42;10.63;;;5.20;76.90;;;3.12;82.82;96030.78;5020370;28;20124;-67
2020/12/25 10:27:17;;;;;;;4.30;2.90;;;5.40;76.60;;;3.24;82.56;96028.81;5036544;28;20030;-67
2020/12/25 10:29:42;;;;;;;21.80;12.25;;;5.60;75.20;;;3.41;82.48;96024.63;5019812;28;20037;-67